createdAt,value
2023-04-26T00:03:56.682Z,133.71
2023-04-26T00:04:51.442Z,149.93
2023-04-26T00:05:46.437Z,164.09
2023-04-26T00:06:41.662Z,178.10
2023-04-26T00:07:36.780Z,189.37
2023-04-26T00:08:31.941Z,199.75
2023-04-26T00:09:27.147Z,210.24
2023-04-26T00:10:22.269Z,218.79
2023-04-26T00:11:17.420Z,225.87
2023-04-26T00:12:12.751Z,235.44
2023-04-26T00:13:07.746Z,244.02
2023-04-26T00:14:03.090Z,249.39
2023-04-26T00:14:58.128Z,252.08
2023-04-26T00:15:53.361Z,256.81
2023-04-26T00:16:48.565Z,261.52
2023-04-26T00:17:43.585Z,265.54
2023-04-26T00:18:38.829Z,265.54
2023-04-26T00:19:33.866Z,265.76
2023-04-26T00:20:29.048Z,264.90
2023-04-26T00:21:24.194Z,265.54
2023-04-26T00:22:19.524Z,263.83
2023-04-26T00:23:14.565Z,265.54
2023-04-26T00:24:09.810Z,269.47
2023-04-26T00:25:04.886Z,273.97
2023-04-26T00:26:00.127Z,276.97
2023-04-26T00:26:55.434Z,276.97
2023-04-26T00:27:50.414Z,276.04
2023-04-26T00:28:45.573Z,277.44
2023-04-26T00:29:40.749Z,279.09
2023-04-26T00:30:35.889Z,282.46
2023-04-26T00:31:31.072Z,285.16
2023-04-26T00:32:26.459Z,287.40
2023-04-26T00:33:21.312Z,293.05
2023-04-26T00:34:16.592Z,295.16
2023-04-26T00:35:11.635Z,297.84
2023-04-26T00:36:06.782Z,302.51
2023-04-26T00:37:01.961Z,309.06
2023-04-26T00:37:57.124Z,316.21
2023-04-26T00:38:52.403Z,319.29
2023-04-26T00:39:47.374Z,321.16
2023-04-26T00:40:42.496Z,321.16
2023-04-26T00:41:37.850Z,323.38
2023-04-26T00:42:32.738Z,326.60
2023-04-26T00:43:27.897Z,329.88
2023-04-26T00:44:23.156Z,332.89
2023-04-26T00:45:18.206Z,335.27
2023-04-26T00:46:13.405Z,335.62
2023-04-26T00:47:08.737Z,335.62
2023-04-26T00:48:03.839Z,334.93
2023-04-26T00:48:58.920Z,336.65
2023-04-26T00:49:53.933Z,337.34
2023-04-26T00:50:49.140Z,341.20
2023-04-26T00:51:44.414Z,346.61
2023-04-26T00:52:39.454Z,348.08
2023-04-26T00:53:34.590Z,352.57
2023-04-26T00:54:29.896Z,356.78
2023-04-26T00:55:24.963Z,359.52
2023-04-26T00:56:20.088Z,362.70
2023-04-26T00:57:15.404Z,369.64
2023-04-26T00:58:10.454Z,367.99
2023-04-26T00:59:05.647Z,372.16
2023-04-26T01:00:00.818Z,369.23
2023-04-26T01:00:55.985Z,374.71
2023-04-26T01:01:51.180Z,371.32
2023-04-26T01:02:46.807Z,373.86
2023-04-26T01:03:41.570Z,373.43
2023-04-26T01:04:36.725Z,373.43
2023-04-26T01:05:31.778Z,371.32
2023-04-26T01:06:26.902Z,367.58
2023-04-26T01:07:22.268Z,368.40
2023-04-26T01:08:17.312Z,375.14
2023-04-26T01:09:12.471Z,379.31
2023-04-26T01:10:07.649Z,383.90
2023-04-26T01:11:02.797Z,385.23
2023-04-26T01:11:58.016Z,385.01
2023-04-26T01:12:53.024Z,385.90
2023-04-26T01:13:48.168Z,387.69
2023-04-26T01:14:43.521Z,386.79
2023-04-26T01:15:38.600Z,389.28
2023-04-26T01:16:33.857Z,387.02
2023-04-26T01:17:29.064Z,389.28
2023-04-26T01:18:24.126Z,389.28
2023-04-26T01:19:19.242Z,390.19
2023-04-26T01:20:14.469Z,384.34
2023-04-26T01:21:09.589Z,381.48
2023-04-26T01:22:04.778Z,376.00
2023-04-26T01:22:59.937Z,370.06
2023-04-26T01:23:55.107Z,367.16
2023-04-26T01:24:50.381Z,363.91
2023-04-26T01:25:45.437Z,365.93
2023-04-26T01:26:40.745Z,368.40
2023-04-26T01:27:35.777Z,370.48
2023-04-26T01:28:30.894Z,373.01
2023-04-26T01:29:26.037Z,372.58
2023-04-26T01:30:21.223Z,372.58
2023-04-26T01:31:16.447Z,368.81
2023-04-26T01:32:11.602Z,359.91
2023-04-26T01:33:06.675Z,354.85
2023-04-26T01:34:01.817Z,357.56
2023-04-26T01:34:57.127Z,359.91
2023-04-26T01:35:52.157Z,366.75
2023-04-26T01:36:47.379Z,372.16
2023-04-26T01:37:42.423Z,376.43
2023-04-26T01:38:37.576Z,378.17
2023-04-26T01:39:32.738Z,377.30
2023-04-26T01:40:28.010Z,373.43
2023-04-26T01:41:23.131Z,376.86
2023-04-26T01:42:18.535Z,376.86
2023-04-26T01:43:13.400Z,377.73
2023-04-26T01:44:08.725Z,376.86
2023-04-26T01:45:03.735Z,377.73
2023-04-26T01:45:58.928Z,373.01
2023-04-26T01:46:54.275Z,371.74
2023-04-26T01:47:49.222Z,368.40
2023-04-26T01:48:44.224Z,361.50
2023-04-26T01:49:39.437Z,354.47
2023-04-26T01:50:34.487Z,349.56
2023-04-26T01:51:29.814Z,343.70
2023-04-26T01:52:24.804Z,342.63
2023-04-26T01:53:20.020Z,338.39
2023-04-26T01:54:15.152Z,333.57
2023-04-26T01:55:10.458Z,334.93
2023-04-26T01:56:05.463Z,334.93
2023-04-26T01:57:00.792Z,332.55
2023-04-26T01:57:55.718Z,335.96
2023-04-26T01:58:51.176Z,338.73
2023-04-26T01:59:45.900Z,338.73
2023-04-26T02:00:40.974Z,338.04
2023-04-26T02:01:36.197Z,341.20
2023-04-26T02:02:31.245Z,342.98
2023-04-26T02:03:26.152Z,341.91
2023-04-26T02:04:21.193Z,345.15
2023-04-26T02:05:16.278Z,346.97
2023-04-26T02:06:11.325Z,348.08
2023-04-26T02:07:06.348Z,348.45
2023-04-26T02:08:01.460Z,345.88
2023-04-26T02:08:56.545Z,342.27
2023-04-26T02:09:51.710Z,343.70
2023-04-26T02:10:46.931Z,339.08
2023-04-26T02:11:42.076Z,339.44
2023-04-26T02:12:36.991Z,333.91
2023-04-26T02:13:32.093Z,334.93
2023-04-26T02:14:27.025Z,332.55
2023-04-26T02:15:22.257Z,332.89
2023-04-26T02:16:17.503Z,333.91
2023-04-26T02:17:12.415Z,331.55
2023-04-26T02:18:08.948Z,331.55
2023-04-26T02:19:03.966Z,330.88
2023-04-26T02:19:59.012Z,328.56
2023-04-26T02:20:54.106Z,328.23
2023-04-26T02:21:49.278Z,327.25
2023-04-26T02:22:44.210Z,330.21
2023-04-26T02:23:39.246Z,327.90
2023-04-26T02:24:34.451Z,328.23
2023-04-26T02:25:29.596Z,329.22
2023-04-26T02:26:24.857Z,329.88
2023-04-26T02:27:19.613Z,333.23
2023-04-26T02:28:14.736Z,333.91
2023-04-26T02:29:09.649Z,339.08
2023-04-26T02:30:04.715Z,340.49
2023-04-26T02:30:59.969Z,342.27
2023-04-26T02:31:55.595Z,340.85
2023-04-26T02:32:50.762Z,344.42
2023-04-26T02:33:46.595Z,344.06
2023-04-26T02:34:41.696Z,347.34
2023-04-26T02:35:37.063Z,344.42
2023-04-26T02:36:32.855Z,345.15
2023-04-26T02:37:27.937Z,347.34
2023-04-26T02:38:23.135Z,348.82
2023-04-26T02:39:19.318Z,344.42
2023-04-26T02:40:14.591Z,345.88
2023-04-26T02:41:10.470Z,345.51
2023-04-26T02:42:05.504Z,347.34
2023-04-26T02:43:00.577Z,349.56
2023-04-26T02:43:56.454Z,348.45
2023-04-26T02:44:51.760Z,349.56
2023-04-26T02:45:47.531Z,349.56
2023-04-26T02:46:42.686Z,353.33
2023-04-26T02:47:38.077Z,352.95
2023-04-26T02:48:33.761Z,354.09
2023-04-26T02:49:29.019Z,352.95
2023-04-26T02:50:24.193Z,357.17
2023-04-26T02:51:20.553Z,361.10
2023-04-26T02:52:15.724Z,367.16
2023-04-26T02:53:11.621Z,368.40
2023-04-26T02:54:07.122Z,368.40
2023-04-26T02:55:02.051Z,373.01
2023-04-26T02:55:57.693Z,369.23
2023-04-26T02:56:52.887Z,368.81
2023-04-26T02:57:48.864Z,348.08
2023-04-26T02:58:43.938Z,327.25
2023-04-26T02:59:39.255Z,312.30
2023-04-26T03:00:35.401Z,301.95
2023-04-26T03:01:30.321Z,297.84
2023-04-26T03:02:25.812Z,306.46
2023-04-26T03:03:21.902Z,313.49
2023-04-26T03:04:17.122Z,326.92
2023-04-26T03:05:12.893Z,315.91
2023-04-26T03:06:08.059Z,323.38
2023-04-26T03:07:03.484Z,322.74
2023-04-26T03:07:58.506Z,320.22
2023-04-26T03:08:53.798Z,320.22
2023-04-26T03:09:48.729Z,306.46
2023-04-26T03:10:43.889Z,305.89
2023-04-26T03:11:38.867Z,320.85
2023-04-26T03:12:33.882Z,333.57
2023-04-26T03:13:28.959Z,339.79
2023-04-26T03:14:24.054Z,350.68
2023-04-26T03:15:19.091Z,363.91
2023-04-26T03:16:14.224Z,366.75
2023-04-26T03:17:12.243Z,366.75
2023-04-26T03:18:07.341Z,369.23
2023-04-26T03:19:02.353Z,349.93
2023-04-26T03:19:57.520Z,340.85
2023-04-26T03:20:52.379Z,326.27
2023-04-26T03:21:47.413Z,315.91
2023-04-26T03:22:42.493Z,310.52
2023-04-26T03:23:37.492Z,309.35
2023-04-26T03:24:32.740Z,309.64
2023-04-26T03:25:27.616Z,313.49
2023-04-26T03:26:22.747Z,311.41
2023-04-26T03:27:17.805Z,313.79
2023-04-26T03:28:12.932Z,314.69
2023-04-26T03:29:07.977Z,315.00
2023-04-26T03:30:05.712Z,312.89
2023-04-26T03:30:59.946Z,311.41
2023-04-26T03:31:55.155Z,311.41
2023-04-26T03:32:50.416Z,309.35
2023-04-26T03:33:45.513Z,302.51
2023-04-26T03:34:40.755Z,298.38
2023-04-26T03:35:35.655Z,294.37
2023-04-26T03:36:30.705Z,279.09
2023-04-26T03:37:25.924Z,170.63
2023-04-26T03:38:21.068Z,147.55
2023-04-26T03:39:16.155Z,152.82
2023-04-26T03:40:11.210Z,163.12
2023-04-26T03:41:06.315Z,176.59
2023-04-26T03:42:01.422Z,189.48
2023-04-26T03:42:56.498Z,202.33
2023-04-26T03:43:51.533Z,212.28
2023-04-26T03:44:46.895Z,219.23
2023-04-26T03:45:41.865Z,222.35
2023-04-26T03:46:36.952Z,228.55
2023-04-26T03:47:32.057Z,237.65
2023-04-26T03:48:27.152Z,246.58
2023-04-26T03:49:22.331Z,257.82
2023-04-26T03:51:43.053Z,243.65
2023-04-26T03:52:37.819Z,241.15
2023-04-26T03:53:33.076Z,244.93
2023-04-26T03:54:28.222Z,249.02
2023-04-26T03:55:23.435Z,257.42
2023-04-26T03:56:19.442Z,265.76
2023-04-26T03:57:13.852Z,274.42
2023-04-26T03:58:09.101Z,285.65
2023-04-26T03:59:04.395Z,292.53
2023-04-26T03:59:59.503Z,298.93
2023-04-26T04:00:54.765Z,303.07
2023-04-26T04:01:50.104Z,306.46
2023-04-26T04:02:45.379Z,313.19
2023-04-26T04:03:41.552Z,314.69
2023-04-26T04:04:35.881Z,318.67
2023-04-26T04:05:30.943Z,318.98
2023-04-26T04:06:26.330Z,315.30
2023-04-26T04:07:21.271Z,310.23
2023-04-26T04:08:16.491Z,305.61
2023-04-26T04:09:11.757Z,309.35
2023-04-26T04:10:07.062Z,313.19
2023-04-26T04:11:02.330Z,315.30
2023-04-26T04:11:57.945Z,315.60
2023-04-26T04:12:52.867Z,311.70
2023-04-26T04:13:48.251Z,286.90
2023-04-26T04:14:43.558Z,273.74
2023-04-26T04:15:38.916Z,268.36
2023-04-26T04:16:34.242Z,267.49
2023-04-26T04:17:29.618Z,266.62
2023-04-26T04:18:24.902Z,267.05
2023-04-26T04:19:20.215Z,269.69
2023-04-26T04:20:15.645Z,270.80
2023-04-26T04:21:11.050Z,274.42
2023-04-26T04:22:06.361Z,275.35
2023-04-26T04:23:01.644Z,275.11
2023-04-26T04:23:56.945Z,274.65
2023-04-26T04:24:52.345Z,272.83
2023-04-26T04:25:47.685Z,273.97
2023-04-26T04:26:43.265Z,271.47
2023-04-26T04:27:38.364Z,268.14
2023-04-26T04:28:33.689Z,264.26
2023-04-26T04:29:29.014Z,259.45
2023-04-26T04:30:24.365Z,254.03
2023-04-26T04:31:19.735Z,249.02
2023-04-26T04:32:15.199Z,244.20
2023-04-26T04:33:10.309Z,242.75
2023-04-26T04:34:05.599Z,236.62
2023-04-26T04:35:00.840Z,227.44
2023-04-26T04:35:56.158Z,158.03
2023-04-26T04:36:51.483Z,132.02
2023-04-26T04:37:46.866Z,140.47
2023-04-26T04:38:42.155Z,155.23
2023-04-26T04:39:37.547Z,165.06
2023-04-26T04:40:32.734Z,177.53
2023-04-26T04:41:28.107Z,180.99
2023-04-26T04:42:23.533Z,180.99
2023-04-26T04:43:18.791Z,138.03
2023-04-26T04:44:14.139Z,111.25
2023-04-26T04:45:09.571Z,111.47
2023-04-26T04:46:05.016Z,110.44
2023-04-26T04:47:00.510Z,117.60
2023-04-26T04:47:55.816Z,124.07
2023-04-26T04:48:51.251Z,129.56
2023-04-26T04:49:46.550Z,139.76
2023-04-26T04:50:41.828Z,150.20
2023-04-26T04:51:37.086Z,162.65
2023-04-26T04:52:32.644Z,166.04
2023-04-26T04:53:27.906Z,171.33
2023-04-26T04:54:23.385Z,178.48
2023-04-26T04:55:19.480Z,186.04
2023-04-26T04:56:15.081Z,190.25
2023-04-26T04:57:10.184Z,191.70
2023-04-26T04:58:05.641Z,196.28
2023-04-26T04:59:00.976Z,199.63
2023-04-26T04:59:56.097Z,201.96
2023-04-26T05:00:51.272Z,176.59
2023-04-26T05:01:46.469Z,168.56
2023-04-26T05:02:41.356Z,161.70
2023-04-26T05:03:36.404Z,165.71
2023-04-26T05:04:31.478Z,173.11
2023-04-26T05:05:26.436Z,181.19
2023-04-26T05:06:21.763Z,187.75
2023-04-26T05:07:16.701Z,197.70
2023-04-26T05:08:11.742Z,202.46
2023-04-26T05:09:08.319Z,206.28
2023-04-26T05:10:03.338Z,207.85
2023-04-26T05:10:58.446Z,208.37
2023-04-26T05:11:53.479Z,208.77
2023-04-26T05:12:48.538Z,211.19
2023-04-26T05:13:43.568Z,213.67
2023-04-26T05:14:38.675Z,216.49
2023-04-26T05:15:33.717Z,216.77
2023-04-26T05:16:29.061Z,214.08
2023-04-26T05:17:24.439Z,213.25
2023-04-26T05:18:19.884Z,209.44
2023-04-26T05:19:15.358Z,208.64
2023-04-26T05:20:10.847Z,208.90
2023-04-26T05:21:06.319Z,205.89
2023-04-26T05:22:01.577Z,207.45
2023-04-26T05:22:56.920Z,205.24
2023-04-26T05:23:52.849Z,168.56
2023-04-26T05:24:48.006Z,158.48
2023-04-26T05:25:43.519Z,165.39
2023-04-26T05:26:38.879Z,172.57
2023-04-26T05:27:34.377Z,173.65
2023-04-26T05:28:29.744Z,167.88
2023-04-26T05:29:25.236Z,153.52
2023-04-26T05:30:20.727Z,152.54
2023-04-26T05:31:16.135Z,160.15
2023-04-26T05:32:15.648Z,163.44
2023-04-26T05:33:11.043Z,165.71
2023-04-26T05:34:06.392Z,165.88
2023-04-26T05:35:01.869Z,167.04
2023-04-26T05:35:57.329Z,169.76
2023-04-26T05:36:52.979Z,174.37
2023-04-26T05:37:48.384Z,176.96
2023-04-26T05:38:43.914Z,174.01
2023-04-26T05:39:39.234Z,174.19
2023-04-26T05:40:34.773Z,177.90
2023-04-26T05:41:30.057Z,179.82
2023-04-26T05:42:25.560Z,179.24
2023-04-26T05:43:20.882Z,177.34
2023-04-26T05:44:16.340Z,175.47
2023-04-26T05:45:11.819Z,178.86
2023-04-26T05:46:07.101Z,170.98
2023-04-26T05:47:01.959Z,169.76
2023-04-26T05:47:57.102Z,171.51
2023-04-26T05:48:52.308Z,171.68
2023-04-26T05:49:53.375Z,164.57
2023-04-26T05:50:48.695Z,159.84
2023-04-26T05:51:44.054Z,156.40
2023-04-26T05:52:39.852Z,158.03
2023-04-26T05:53:35.272Z,158.18
2023-04-26T05:54:30.557Z,159.84
2023-04-26T05:55:27.170Z,160.92
2023-04-26T05:56:22.731Z,153.94
2023-04-26T05:57:18.294Z,152.12
2023-04-26T05:58:13.636Z,155.52
2023-04-26T05:59:09.128Z,161.39
2023-04-26T06:00:04.873Z,168.22
2023-04-26T06:01:00.394Z,175.29
2023-04-26T06:01:56.283Z,183.38
2023-04-26T06:02:51.691Z,185.01
2023-04-26T06:03:47.088Z,181.19
2023-04-26T06:04:43.053Z,189.59
2023-04-26T06:05:38.375Z,200.73
2023-04-26T06:06:33.813Z,208.24
2023-04-26T06:07:29.968Z,215.35
2023-04-26T06:08:25.474Z,225.41
2023-04-26T06:09:21.354Z,233.26
2023-04-26T06:10:16.766Z,240.79
2023-04-26T06:11:12.325Z,245.66
2023-04-26T06:12:07.939Z,251.50
2023-04-26T06:13:03.255Z,248.45
2023-04-26T06:13:59.183Z,237.65
2023-04-26T06:14:54.386Z,221.90
2023-04-26T06:15:49.925Z,228.39
2023-04-26T06:16:45.604Z,240.44
2023-04-26T06:17:41.105Z,250.73
2023-04-26T06:18:36.546Z,260.69
2023-04-26T06:19:32.766Z,263.41
2023-04-26T06:20:28.564Z,262.36
2023-04-26T06:21:24.122Z,269.24
2023-04-26T06:22:19.564Z,268.58
2023-04-26T06:23:15.103Z,267.49
2023-04-26T06:24:10.879Z,268.14
2023-04-26T06:25:06.415Z,266.40
2023-04-26T06:26:02.212Z,244.20
2023-04-26T06:26:57.519Z,246.58
2023-04-26T06:27:52.891Z,235.44
2023-04-26T06:28:48.667Z,237.48
2023-04-26T06:29:43.991Z,192.82
2023-04-26T06:30:39.611Z,193.16
2023-04-26T06:31:35.877Z,205.89
2023-04-26T06:32:31.301Z,212.83
2023-04-26T06:33:27.064Z,223.72
2023-04-26T06:34:22.620Z,228.87
2023-04-26T06:35:18.129Z,226.34
2023-04-26T06:36:13.797Z,246.95
2023-04-26T06:37:09.212Z,260.90
2023-04-26T06:38:05.090Z,275.81
2023-04-26T06:39:00.291Z,284.17
2023-04-26T06:39:55.852Z,289.43
2023-04-26T06:40:51.388Z,292.01
2023-04-26T06:41:46.772Z,292.53
2023-04-26T06:42:42.294Z,299.47
2023-04-26T06:43:38.599Z,305.04
2023-04-26T06:44:34.195Z,273.05
2023-04-26T06:45:29.941Z,260.27
2023-04-26T06:46:25.440Z,272.37
2023-04-26T06:47:20.842Z,257.62
2023-04-26T06:48:16.673Z,252.46
2023-04-26T06:49:12.191Z,260.48
2023-04-26T06:50:07.788Z,266.84
2023-04-26T06:51:03.261Z,277.21
2023-04-26T06:51:58.985Z,269.02
2023-04-26T06:52:54.531Z,269.69
2023-04-26T06:53:49.970Z,262.78
2023-04-26T06:54:56.072Z,283.19
2023-04-26T06:55:42.570Z,272.37
2023-04-26T06:56:37.388Z,243.47
2023-04-26T06:57:32.716Z,217.35
2023-04-26T06:58:28.241Z,172.75
2023-04-26T06:59:23.827Z,150.47
2023-04-26T07:00:19.261Z,165.88
2023-04-26T07:01:15.088Z,186.04
2023-04-26T07:02:10.516Z,191.47
2023-04-26T07:03:06.060Z,193.62
2023-04-26T07:04:01.684Z,204.22
2023-04-26T07:04:57.327Z,189.59
2023-04-26T07:05:52.265Z,192.37
2023-04-26T07:06:49.225Z,198.18
2023-04-26T07:07:44.530Z,189.92
2023-04-26T07:08:40.181Z,183.38
2023-04-26T07:09:35.556Z,189.81
2023-04-26T07:10:31.263Z,194.54
2023-04-26T07:11:26.431Z,191.36
2023-04-26T07:12:21.150Z,184.89
2023-04-26T07:13:16.213Z,196.28
2023-04-26T07:14:11.306Z,202.96
2023-04-26T07:15:06.440Z,222.50
2023-04-26T07:16:01.369Z,261.94
2023-04-26T07:16:56.372Z,290.20
2023-04-26T07:17:51.571Z,296.49
2023-04-26T07:18:46.639Z,289.94
2023-04-26T07:19:41.936Z,285.16
2023-04-26T07:20:36.735Z,268.80
2023-04-26T07:21:31.888Z,255.61
2023-04-26T07:22:26.834Z,266.19
2023-04-26T07:23:21.895Z,287.15
2023-04-26T07:24:20.858Z,265.33
2023-04-26T07:25:15.857Z,223.72
2023-04-26T07:26:10.974Z,210.24
2023-04-26T07:27:05.978Z,249.77
2023-04-26T07:28:01.086Z,284.91
2023-04-26T07:28:56.195Z,285.16
2023-04-26T07:29:51.228Z,239.39
2023-04-26T07:30:46.326Z,245.84
2023-04-26T07:31:41.322Z,264.05
2023-04-26T07:32:36.503Z,247.14
2023-04-26T07:33:32.790Z,256.41
2023-04-26T07:34:28.405Z,222.50
2023-04-26T07:35:23.945Z,212.28
2023-04-26T07:36:19.468Z,204.99
2023-04-26T07:37:14.843Z,189.04
2023-04-26T07:38:10.814Z,186.04
2023-04-26T07:39:06.243Z,145.74
2023-04-26T07:40:02.215Z,90.56
2023-04-26T07:40:57.496Z,86.53
2023-04-26T07:41:53.084Z,92.37
2023-04-26T07:42:48.924Z,100.77
2023-04-26T07:43:44.409Z,115.56
2023-04-26T07:44:40.016Z,119.88
2023-04-26T07:45:36.173Z,124.91
2023-04-26T07:46:31.519Z,124.72
2023-04-26T07:47:27.537Z,137.01
2023-04-26T07:48:22.834Z,144.73
2023-04-26T07:49:18.566Z,156.99
2023-04-26T07:50:14.140Z,166.71
2023-04-26T07:51:09.664Z,175.10
2023-04-26T07:52:05.523Z,184.60
2023-04-26T07:53:00.914Z,187.43
2023-04-26T07:53:56.319Z,193.85
2023-04-26T07:54:52.055Z,187.43
2023-04-26T07:55:47.418Z,173.83
2023-04-26T07:56:42.923Z,174.01
2023-04-26T07:57:39.115Z,184.60
2023-04-26T07:58:34.576Z,191.14
2023-04-26T07:59:30.662Z,208.64
2023-04-26T08:00:25.982Z,223.41
2023-04-26T08:01:21.352Z,170.46
2023-04-26T08:02:17.238Z,140.70
2023-04-26T08:03:12.676Z,150.20
2023-04-26T08:04:08.861Z,170.80
2023-04-26T08:05:03.910Z,178.29
2023-04-26T08:05:59.271Z,190.36
2023-04-26T08:06:55.116Z,215.07
2023-04-26T08:07:50.685Z,204.22
2023-04-26T08:08:46.324Z,198.78
2023-04-26T08:09:42.410Z,195.35
2023-04-26T08:10:37.758Z,200.97
2023-04-26T08:11:33.713Z,187.21
2023-04-26T08:12:29.060Z,195.00
2023-04-26T08:13:27.043Z,183.99
2023-04-26T08:14:20.159Z,177.53
2023-04-26T08:15:15.304Z,186.66
2023-04-26T08:16:11.088Z,216.49
2023-04-26T08:17:06.500Z,243.65
2023-04-26T08:18:01.760Z,252.66
2023-04-26T08:18:58.439Z,245.11
2023-04-26T08:19:53.720Z,236.28
2023-04-26T08:20:49.471Z,198.54
2023-04-26T08:21:44.773Z,186.24
2023-04-26T08:22:40.244Z,172.39
2023-04-26T08:23:36.162Z,166.71
2023-04-26T08:24:31.346Z,171.15
2023-04-26T08:25:27.192Z,177.34
2023-04-26T08:26:22.526Z,204.22
2023-04-26T08:27:17.838Z,220.26
2023-04-26T08:28:13.638Z,235.77
2023-04-26T08:29:09.079Z,234.76
2023-04-26T08:30:04.404Z,198.78
2023-04-26T08:30:59.801Z,205.50
2023-04-26T08:31:55.281Z,233.10
2023-04-26T08:32:51.730Z,251.11
2023-04-26T08:33:47.445Z,261.73
2023-04-26T08:34:42.903Z,245.66
2023-04-26T08:35:38.416Z,234.26
2023-04-26T08:36:33.801Z,242.04
2023-04-26T08:37:29.676Z,234.26
2023-04-26T08:38:25.077Z,240.09
2023-04-26T08:39:20.764Z,198.18
2023-04-26T08:40:16.896Z,212.83
2023-04-26T08:41:12.459Z,242.21
2023-04-26T08:42:08.103Z,271.25
2023-04-26T08:43:03.636Z,249.21
2023-04-26T08:43:59.224Z,193.73
2023-04-26T08:44:55.119Z,188.94
2023-04-26T08:45:50.555Z,223.11
2023-04-26T08:46:46.516Z,265.33
2023-04-26T08:47:41.775Z,308.48
2023-04-26T08:48:37.418Z,329.88
2023-04-26T08:49:33.115Z,342.63
2023-04-26T08:50:28.678Z,311.11
2023-04-26T08:51:24.141Z,262.99
2023-04-26T08:52:20.427Z,209.44
2023-04-26T08:53:15.867Z,172.21
2023-04-26T08:54:11.877Z,167.04
2023-04-26T08:55:07.082Z,172.75
2023-04-26T08:56:02.588Z,203.21
2023-04-26T08:56:58.381Z,245.66
2023-04-26T08:57:53.889Z,273.05
2023-04-26T08:58:49.825Z,290.71
2023-04-26T08:59:45.092Z,304.76
2023-04-26T09:00:40.397Z,340.85
2023-04-26T09:01:36.219Z,379.10
2023-04-26T09:02:31.598Z,403.16
2023-04-26T09:03:27.173Z,422.31
2023-04-26T09:04:23.399Z,450.26
2023-04-26T09:05:18.753Z,441.32
2023-04-26T09:06:14.524Z,521.78
2023-04-26T09:07:10.033Z,564.16
2023-04-26T09:08:05.472Z,576.84
2023-04-26T09:09:01.438Z,584.94
2023-04-26T09:09:56.614Z,581.37
2023-04-26T09:10:52.404Z,600.75
2023-04-26T09:11:47.761Z,633.27
2023-04-26T09:12:43.233Z,658.93
2023-04-26T09:13:39.206Z,662.86
2023-04-26T09:14:34.409Z,694.62
2023-04-26T09:15:29.753Z,769.90
2023-04-26T09:16:26.081Z,788.54
2023-04-26T09:17:21.574Z,748.41
2023-04-26T09:18:17.232Z,720.12
2023-04-26T09:19:12.562Z,698.99
2023-04-26T09:20:08.179Z,693.90
2023-04-26T09:21:03.739Z,701.93
2023-04-26T09:21:59.207Z,745.90
2023-04-26T09:22:54.557Z,762.86
2023-04-26T09:23:50.636Z,749.16
2023-04-26T09:24:45.851Z,679.06
2023-04-26T09:25:41.740Z,636.90
2023-04-26T09:26:37.166Z,571.41
2023-04-26T09:27:32.573Z,568.48
2023-04-26T09:28:28.316Z,536.04
2023-04-26T09:29:24.055Z,552.47
2023-04-26T09:30:19.234Z,567.52
2023-04-26T09:31:15.877Z,570.92
2023-04-26T09:32:11.342Z,563.20
2023-04-26T09:33:07.131Z,546.14
2023-04-26T09:34:02.682Z,505.18
2023-04-26T09:34:58.015Z,529.23
2023-04-26T09:35:53.400Z,532.19
2023-04-26T09:36:49.009Z,580.36
2023-04-26T09:37:57.300Z,618.58
2023-04-26T09:38:41.322Z,647.41
2023-04-26T09:39:35.998Z,689.59
2023-04-26T09:40:31.585Z,647.41
2023-04-26T09:41:26.988Z,631.47
2023-04-26T09:42:22.461Z,613.46
2023-04-26T09:43:18.218Z,614.03
2023-04-26T09:44:13.724Z,630.28
2023-04-26T09:45:09.341Z,554.77
2023-04-26T09:46:04.732Z,580.36
2023-04-26T09:47:00.151Z,596.99
2023-04-26T09:47:55.942Z,626.13
2023-04-26T09:48:51.544Z,576.35
2023-04-26T09:49:47.164Z,608.42
2023-04-26T09:50:43.557Z,647.41
2023-04-26T09:51:39.031Z,697.52
2023-04-26T09:52:34.705Z,795.59
2023-04-26T09:53:30.296Z,851.95
2023-04-26T09:54:25.876Z,672.89
2023-04-26T09:55:33.582Z,694.62
2023-04-26T09:56:18.049Z,772.12
2023-04-26T09:57:12.818Z,686.04
2023-04-26T09:58:08.202Z,573.87
2023-04-26T09:59:03.732Z,595.92
2023-04-26T09:59:59.702Z,649.93
2023-04-26T10:00:54.990Z,706.39
2023-04-26T10:01:50.355Z,747.57
2023-04-26T10:02:46.807Z,777.07
2023-04-26T10:03:42.450Z,813.03
2023-04-26T10:04:38.119Z,829.71
2023-04-26T10:05:34.080Z,850.86
2023-04-26T10:06:28.995Z,889.41
2023-04-26T10:07:25.038Z,888.82
2023-04-26T10:08:20.624Z,894.77
2023-04-26T10:09:16.479Z,900.20
2023-04-26T10:10:12.040Z,954.94
2023-04-26T10:11:07.209Z,988.89
2023-04-26T10:12:02.973Z,984.51
2023-04-26T10:12:58.309Z,990.36
2023-04-26T10:13:53.924Z,999.25
2023-04-26T10:14:50.342Z,1012.13
2023-04-26T10:15:45.680Z,988.89
2023-04-26T10:16:41.505Z,934.87
2023-04-26T10:17:37.137Z,913.76
2023-04-26T10:18:32.572Z,925.16
2023-04-26T10:19:28.288Z,942.13
2023-04-26T10:20:23.679Z,873.12
2023-04-26T10:21:19.522Z,791.82
2023-04-26T10:22:14.851Z,736.02
2023-04-26T10:23:10.192Z,737.65
2023-04-26T10:24:06.046Z,739.28
2023-04-26T10:25:01.727Z,776.61
2023-04-26T10:25:57.117Z,862.40
2023-04-26T10:26:53.586Z,903.25
2023-04-26T10:27:49.074Z,1000.75
2023-04-26T10:28:44.881Z,1022.99
2023-04-26T10:29:40.311Z,1046.24
2023-04-26T10:30:35.934Z,1087.13
2023-04-26T10:31:31.572Z,1172.08
2023-04-26T10:32:27.060Z,1148.88
2023-04-26T10:33:22.877Z,1087.13
2023-04-26T10:34:18.144Z,1007.55
2023-04-26T10:35:13.752Z,995.53
2023-04-26T10:36:09.235Z,1024.56
2023-04-26T10:37:04.584Z,1017.53
2023-04-26T10:37:59.998Z,1071.43
2023-04-26T10:38:56.119Z,1115.29
2023-04-26T10:39:51.708Z,1167.98
2023-04-26T10:40:47.272Z,1255.88
2023-04-26T10:41:42.200Z,1381.99
2023-04-26T10:42:37.291Z,1481.69
2023-04-26T10:43:32.262Z,1451.09
2023-04-26T10:44:27.393Z,1443.24
2023-04-26T10:45:22.560Z,1515.32
2023-04-26T10:46:17.613Z,1631.03
2023-04-26T10:47:12.634Z,1597.85
2023-04-26T10:48:07.679Z,1501.69
2023-04-26T10:49:02.714Z,1417.20
2023-04-26T10:49:57.695Z,1509.33
2023-04-26T10:50:52.931Z,1639.04
2023-04-26T10:51:47.933Z,1760.05
2023-04-26T10:52:42.951Z,1831.28
2023-04-26T10:53:37.946Z,1850.31
2023-04-26T10:54:36.793Z,1858.04
2023-04-26T10:55:31.858Z,1842.65
2023-04-26T10:56:27.074Z,1788.35
2023-04-26T10:57:22.029Z,1687.74
2023-04-26T10:58:17.136Z,1666.67
2023-04-26T11:00:07.258Z,1739.41
2023-04-26T11:01:02.389Z,1648.15
2023-04-26T11:01:57.442Z,1649.17
2023-04-26T11:02:53.292Z,1747.38
2023-04-26T11:03:47.842Z,1739.41
2023-04-26T11:04:43.259Z,1397.91
2023-04-26T11:05:38.959Z,1511.89
2023-04-26T11:06:34.190Z,1511.89
2023-04-26T11:07:29.255Z,1455.83
2023-04-26T11:08:24.371Z,1435.48
2023-04-26T11:09:19.363Z,1546.03
2023-04-26T11:10:14.470Z,1589.29
2023-04-26T11:11:09.609Z,1566.90
2023-04-26T11:12:07.544Z,1427.81
2023-04-26T11:13:02.652Z,1373.46
2023-04-26T11:13:57.664Z,1283.65
2023-04-26T11:14:52.740Z,1234.97
2023-04-26T11:15:49.109Z,1152.85
2023-04-26T11:16:42.971Z,1134.24
2023-04-26T11:17:38.139Z,1079.22
2023-04-26T11:18:33.090Z,1103.31
2023-04-26T11:19:28.068Z,1212.53
2023-04-26T11:20:23.224Z,1377.71
2023-04-26T11:21:18.531Z,1500.00
2023-04-26T11:22:13.895Z,1602.64
2023-04-26T11:23:09.592Z,1666.67
2023-04-26T11:24:04.981Z,1686.67
2023-04-26T11:25:00.557Z,1577.08
2023-04-26T11:25:56.398Z,1460.61
2023-04-26T11:26:51.693Z,1496.64
2023-04-26T11:27:47.398Z,1597.85
2023-04-26T11:28:42.817Z,1588.34
2023-04-26T11:29:38.339Z,1629.04
2023-04-26T11:30:34.397Z,1758.89
2023-04-26T11:31:29.763Z,1927.80
2023-04-26T11:32:25.117Z,1985.13
2023-04-26T11:33:21.502Z,1885.59
2023-04-26T11:34:17.029Z,1871.06
2023-04-26T11:35:12.766Z,1911.24